Grass Lake, MI (49240)

04:46 PM EDT del 29 Marzo 2015 (GMT -0400)
South of I-94 in Grass Lake Michigan | | Change Station
CLOSE
Current Station
Stazione meteo personale
Location: Grass Lake Charter Township, MI
Altitudine: 1010 ft
Stazioni meteo nelle vicinanze

Alt. 1010 ft 42.28 °N, 84.19 °W | Updated 9 seconds ago

Coperto
Coperto
40.5 °F
Sembra 31 °F
N
20.0
Vento Variabile Vento da OSO
Gusts 25.0 mph

Oggi
Massima -- | Minima -- °F
--% Possibilità di precip.
Ieri
Massima -- | Minima -- °F
Precip. -- in
7:24 AM 7:58 PM
Gobba a ponente, 74% visible
Pressione 29.90 in
Visibilità 10.0 miglia
Nuvole Molto nuvoloso 6000 ft
Coperto 7500 ft
Raffreddamento del vento 31 °F
Punto di rugiada 28 °F
Umidità 60%
Piovosità 0.00 in
Spessore del manto nevoso Non disponibile.
Raggi UV 2 fuori da 12
Polline 5.30 fuori da 12
Qualità dell'aria Non disponibile.
Flu Activity Non disponibile.
METAR KJXN 291956Z 20018G33KT 10SM BKN060 OVC075 05/M08 A2987 RMK AO2 PK WND 19033/1948 SLP124 T00501083 $

More Conditions Fewer Conditions

Pressione 29.90 in
Visibilità 10.0 miglia
Nuvole Molto nuvoloso 6000 ft
Coperto 7500 ft
Raffreddamento del vento 31 °F
Punto di rugiada 28 °F
Umidità 60%
Piovosità 0.00 in
Spessore del manto nevoso Non disponibile.
Raggi UV 2 fuori da 12
Polline 5.30 fuori da 12
Qualità dell'aria Non disponibile.
Flu Activity Non disponibile.
METAR KJXN 291956Z 20018G33KT 10SM BKN060 OVC075 05/M08 A2987 RMK AO2 PK WND 19033/1948 SLP124 T00501083 $

More Conditions Fewer Conditions

10-Day Weather Forecast

Almanac

Astronomia

Mar. 29, 2015 Alba Tramonto
Ora attuale
Crepuscolo civile
Crepuscolo nautico
Crepuscolo astronomico
Luna
Estensione della luce visibile
Lunghezza del giorno
Tomorrow will be .
, % of the Moon is Illuminated

Gli estremi di oggi

State Highs State Lows

Community

WunderPhotos

Upload Photos

1,809,347 foto caricate!

WunderBlogs® & News

Nearby

Qualità dell'aria

  Qualità dell'aria Indice AQ Inquinante
Not available.

Profondità neve

Stazione Profondità Altitudine

Attività sismica

Città  Distanza Mag. Data & Ora
Minimo Magnitudo Mostrato è 2.5.

Temperature delle acque costiere

Località Temperatura

Stations

Stazioni meteo nelle vicinanze

Ubicazione della stazione Temp. Raffreddamento del vento Punto di rugiada Umidità Vento Precip. Alt. Aggiornato Tipo